Rounding results for class SRS C at rounding KSSS Oxdjupet

Rank Sail no. Boat name Skipper/team Report no. Club Boat type Reported Sailed time Corr time To 1st boat
1 SWE 1 MITHRIL Team Mithril 98 Gustavsbergs BK One Off 2019-06-30 14:31:38 03:01:38 03:07:04 00:00:00
2 SWE 594 FALSAT Falsat 162 Örnsköldsviks SS Albin Express 2019-06-30 14:53:11 03:33:11 03:13:59 00:06:54
3 SWE 195 WET-X Wet-X Sailing Team 31 Enköpings SS X-99 2019-06-30 14:43:15 03:13:15 03:17:41 00:10:36
4 SWE 55 LA DOLCE VITA Per Lindstedt 229 KSSS Finngulf 33 2019-06-30 14:43:45 03:13:45 03:19:22 00:12:17
5 FIN 7850 VINCA Markku Hentinen 209 Espoon Pursiseura X-99 2019-06-30 14:49:03 03:19:03 03:21:38 00:14:33
6 SWE 16532 XPLORER Team Xplorer 128 KSSS X-332 2019-06-30 14:48:30 03:18:30 03:22:16 00:15:11
7 SWE 9681 WIZ Wiz Sailingteam 96 Kungliga Svenska Segelsällskapet Dehler db1 2019-06-30 14:47:01 03:27:01 03:25:09 00:18:04
8 SWE 48 TRAVIATA Team Birgersson 165 SS Svearna Avance 36 2019-06-30 14:51:12 03:31:12 03:25:17 00:18:12
9 SWE 80 ANNA Fredrik Lindahl 131 KSSS Dehler 34 DD 2019-06-30 14:50:55 03:20:55 03:27:08 00:20:03
10 SWE 28 TJAJKA Björn Ternström 181 Askrike SS Dehler 34DD 2019-06-30 14:52:06 03:22:06 03:27:33 00:20:28
11 SWE 501 BOJ - BOJ Peter Forslund 228 Runmarö Yacht Club Scampi 2019-06-30 15:14:03 03:54:03 03:31:20 00:24:15
12 SWE 10 ADELINE-WS76 Adeline WS 76 77 Kungliga Svenska Segelsällskapet Comfortina 38 2019-06-30 14:58:59 03:28:59 03:33:34 00:26:29
13 SWE 58 JOJO Johan Skåntorp 11 Trälhavets BK J/92S 2019-06-30 15:01:54 03:31:54 03:34:39 00:27:34
14 SWE 123 ALLWINA Team Allwina 166 Trollbäckens BS Linjett 33 2019-06-30 15:00:17 03:40:17 03:34:59 00:27:54
15 SWE 59 SERENITY Jan Komorowski 150 Föreningen Linjettseglarna Linjett 33 2019-06-30 15:01:16 03:41:16 03:38:36 00:31:31
16 FIN 11035 PAM Team #OURSEA 184 Helsingfors Segelsällskap S&S 40 2019-06-30 15:06:37 03:46:37 03:43:26 00:36:21
17 SWE 411 PLUTO Simon Rådahl 48 Morarnas BK Dehler 29 mk2 2019-06-30 15:17:38 03:57:38 03:46:56 00:39:51
18 SWE 303 ANANDRA Göran Haglund 82 Trollbäckens BS Omega 42 2019-06-30 15:11:25 03:41:25 03:47:36 00:40:32
19 SWE 35 ELÄNDET Sandor Moldovan 177 Oskarshamns SS Dominant 95 2019-06-30 15:13:40 03:53:40 03:48:31 00:41:26
20 SWE 131 MAJA Team Maja 136 BS Arken Elan 31 2019-06-30 15:20:01 04:00:01 03:50:24 00:43:20
21 SWE 322 GRYFFINDOR Anders Karlsson 85 Södertälje BS DEHLER 29 MK II 2019-06-30 15:27:13 04:07:13 03:54:51 00:47:46
22 FIN 10914 LOLEE Antti Elevuori 59 Naantalin Purjehdusseura Arcona 36 2019-06-30 15:29:28 03:59:28 04:02:49 00:55:44
23 SWE 21 RED BARON SEA-SPEED 39 Dalarö BK Ravage 36 2019-06-30 15:30:10 04:00:10 04:03:46 00:56:41
24 SWE 42 MOLEKUL 2 TON ARMY 14 KSSS Swan 44 2019-06-30 15:30:21 04:00:21 04:03:57 00:56:52
25 SWE 278 HERAKLEITOS Mikael Haake 87 Runmarö Yacht Club Dufour 34 HR 2019-06-30 15:29:23 03:59:23 04:04:38 00:57:34
26 SWE 7105 AKLEJA Team Akleja 65 Runmarö Yacht Club Dehler 34 DD 2019-06-30 15:29:50 03:59:50 04:05:49 00:58:44
27 SWE 106 ORIOLE II Team Oriole 6 KSSS Omega 42 2019-06-30 15:30:11 04:00:11 04:06:54 00:59:49
28 SWE 87 FIONA Träsktrollen 2.0 110 Velamsunds BK Hanse 325 2019-06-30 15:36:37 04:16:37 04:07:07 01:00:02
29 GER 45 ESCAPADE ESCAPADE 9 Viggbyholms Segelsällskapet X-99 2019-06-30 15:30:24 04:00:24 04:07:07 01:00:02
30 SWE 8343 PRIMA DONNA Tomas Hedberg 67 KSSS Bavaria 46 2019-06-30 15:30:18 04:00:18 04:07:16 01:00:11
31 SWE 1 TEAM BLACK BIRD Team Black Bird 134 Trälhavets BK enskrov jeanneau 349 2019-06-30 15:30:37 04:10:37 04:07:21 01:00:16
32 SWE 10763 PAULA Tähtihetki 182 Oaxens BK Dufour 385 2019-06-30 15:30:43 04:00:43 04:07:56 01:00:51
33 SWE 128 ASTERIX Asteri‚ú≥ 190 Göta SS X-99 2019-06-30 15:32:56 04:02:56 04:09:44 01:02:39
34 SWE 190 STERENN Team Sterenn 171 Karlskrona SS First 33,7 2019-06-30 15:33:12 04:13:12 04:10:09 01:03:04
35 SWE 11908 ETOILE DE MARE Lars Göran Högqvist 129 Svinninge Marina Klubb Jeanneau 39 2019-06-30 15:36:25 04:06:25 04:11:05 01:04:00
36 SWE 143 ARIADNE Team Rival / Henrik Martinell 18 Ekolns SK Rival 22 2019-06-30 16:08:41 04:48:41 04:31:21 01:24:16
37 SWE 48 SCATCAT Team Scatcat 174 Gamla Stans YS Nauticat 43 2019-06-30 16:35:00 05:15:00 05:03:01 01:55:56
38 SWE 9059 Jennifer Jennifer 78 KSSS Beneteau Oceanis 500 2019-06-30 16:50:00 05:20:00 05:28:38 02:21:33